Time;durP1;ratioP1;P1;durP2;ratioP2;P2;SDS_P1;SDS_P2;PMS_P1;PMS_P2;Temp;Humidity;BMP_temperature;BMP_pressure;BME280_temperature;BME280_humidity;BME280_pressure;Samples;Min_cycle;Max_cycle;Signal;HPM_P1;HPM_P2
2023/01/23 00:02:08;;;;;;;11.90;10.50;;;1.80;99.90;;;;;;4971994;28;20504;-53
2023/01/23 00:04:34;;;;;;;13.07;10.93;;;1.70;99.90;;;;;;4972887;28;20502;-54
2023/01/23 00:07:02;;;;;;;13.60;10.97;;;1.70;99.90;;;;;;4969574;28;20523;-52
2023/01/23 00:09:28;;;;;;;14.97;11.47;;;1.70;99.90;;;;;;4972700;28;20479;-53
2023/01/23 00:11:55;;;;;;;13.57;11.53;;;1.70;99.90;;;;;;4970455;28;20600;-53
2023/01/23 00:14:23;;;;;;;16.53;11.90;;;1.70;99.90;;;;;;4972002;28;20508;-52
2023/01/23 00:16:49;;;;;;;12.03;10.80;;;1.80;99.90;;;;;;4973969;28;20547;-53
2023/01/23 00:19:16;;;;;;;13.83;11.13;;;1.80;99.90;;;;;;4966972;28;20571;-53
2023/01/23 00:21:42;;;;;;;16.27;11.70;;;1.70;99.90;;;;;;4972599;28;20504;-54
2023/01/23 00:24:11;;;;;;;16.77;11.40;;;1.70;99.90;;;;;;4970022;28;20525;-53
2023/01/23 00:26:38;;;;;;;15.30;12.37;;;1.70;99.90;;;;;;4971246;28;21057;-53
2023/01/23 00:29:05;;;;;;;14.67;12.70;;;1.70;99.90;;;;;;4968889;28;20453;-53
2023/01/23 00:31:35;;;;;;;13.00;11.50;;;1.70;99.90;;;;;;4968439;28;20468;-53
2023/01/23 00:34:03;;;;;;;13.63;11.50;;;1.70;99.90;;;;;;4971483;28;20551;-52
2023/01/23 00:36:32;;;;;;;15.50;11.70;;;1.70;99.90;;;;;;4970374;28;20591;-54
2023/01/23 00:38:59;;;;;;;13.23;11.27;;;1.70;99.90;;;;;;4970583;28;20529;-53
2023/01/23 00:41:26;;;;;;;16.03;11.63;;;1.70;99.90;;;;;;4968895;28;20465;-53
2023/01/23 00:43:52;;;;;;;20.23;12.67;;;1.80;99.90;;;;;;4973738;28;20579;-53
2023/01/23 00:46:19;;;;;;;12.70;11.20;;;1.70;99.90;;;;;;4970209;28;20983;-53
2023/01/23 00:48:47;;;;;;;18.57;12.40;;;1.70;99.90;;;;;;4964139;28;20591;-53
2023/01/23 00:51:14;;;;;;;15.40;12.10;;;1.70;99.90;;;;;;4969346;28;20462;-53
2023/01/23 00:53:41;;;;;;;12.60;11.30;;;1.80;99.90;;;;;;4962838;28;20519;-53
2023/01/23 00:56:08;;;;;;;17.90;12.80;;;1.70;99.90;;;;;;4968117;28;20552;-53
2023/01/23 00:58:34;;;;;;;16.57;12.30;;;1.80;99.90;;;;;;4966700;28;20500;-53
2023/01/23 01:01:01;;;;;;;16.63;12.43;;;1.70;99.90;;;;;;4969032;28;20978;-53
2023/01/23 01:03:28;;;;;;;14.20;11.70;;;1.70;99.90;;;;;;4968700;28;20887;-53
2023/01/23 01:05:56;;;;;;;15.67;12.07;;;1.80;99.90;;;;;;4968482;28;20912;-52
2023/01/23 01:08:22;;;;;;;12.63;11.30;;;1.80;99.90;;;;;;4969389;28;20894;-53
2023/01/23 01:10:49;;;;;;;15.23;12.00;;;1.80;99.90;;;;;;4967570;28;20501;-53
2023/01/23 01:13:20;;;;;;;17.13;13.20;;;1.70;99.90;;;;;;4969328;28;20520;-52
2023/01/23 01:15:47;;;;;;;16.93;11.70;;;1.70;99.90;;;;;;4970338;28;20461;-54
2023/01/23 01:18:14;;;;;;;14.83;12.63;;;1.80;99.90;;;;;;4969057;28;20493;-53
2023/01/23 01:20:41;;;;;;;16.13;12.40;;;1.80;99.90;;;;;;4986429;28;20468;-53
2023/01/23 01:23:10;;;;;;;15.00;12.57;;;1.80;99.90;;;;;;4985551;28;20501;-54
2023/01/23 01:25:37;;;;;;;16.30;13.20;;;1.80;99.90;;;;;;4980534;28;21223;-54
2023/01/23 01:28:04;;;;;;;13.07;11.53;;;1.70;99.90;;;;;;4978915;28;20493;-53
2023/01/23 01:30:30;;;;;;;14.23;12.10;;;1.70;99.90;;;;;;4974783;28;20504;-55
2023/01/23 01:32:57;;;;;;;13.50;11.40;;;1.70;99.90;;;;;;4971094;28;20615;-54
2023/01/23 01:35:24;;;;;;;13.80;11.17;;;1.70;99.90;;;;;;4964221;28;20511;-53
2023/01/23 01:37:51;;;;;;;13.53;10.93;;;1.70;99.90;;;;;;4966296;28;20496;-53
2023/01/23 01:40:22;;;;;;;15.43;12.47;;;1.70;99.90;;;;;;4972297;28;20496;-53
2023/01/23 01:42:52;;;;;;;15.73;11.53;;;1.70;99.90;;;;;;4966826;28;20495;-53
2023/01/23 01:46:01;;;;;;;14.47;11.50;;;1.80;99.90;;;;;;4972053;28;20580;-52
2023/01/23 01:48:31;;;;;;;14.57;11.80;;;1.70;99.90;;;;;;4967540;28;20493;-53
2023/01/23 01:50:59;;;;;;;15.27;12.20;;;1.70;99.90;;;;;;4967759;28;20603;-53
2023/01/23 01:53:28;;;;;;;17.37;13.87;;;1.80;99.90;;;;;;4970674;28;20520;-53
2023/01/23 01:55:57;;;;;;;14.03;11.60;;;1.80;99.90;;;;;;4967726;28;20504;-54
2023/01/23 01:58:24;;;;;;;14.70;12.20;;;1.70;99.90;;;;;;4967713;28;20559;-53
2023/01/23 02:00:51;;;;;;;14.07;12.20;;;1.70;99.90;;;;;;4970475;28;20488;-53
2023/01/23 02:03:18;;;;;;;13.57;11.80;;;1.70;99.90;;;;;;4966441;28;20583;-52
2023/01/23 02:05:47;;;;;;;19.50;11.97;;;1.70;99.90;;;;;;4964361;28;20489;-53
2023/01/23 02:08:19;;;;;;;14.87;11.60;;;1.80;99.90;;;;;;4968760;28;20575;-52
2023/01/23 02:10:46;;;;;;;14.47;10.87;;;1.80;99.90;;;;;;4969286;28;20503;-54
2023/01/23 02:13:23;;;;;;;14.47;12.10;;;1.70;99.90;;;;;;4965108;28;20527;-53
2023/01/23 02:15:51;;;;;;;14.40;11.90;;;1.70;99.90;;;;;;4963529;28;20479;-54
2023/01/23 02:18:17;;;;;;;15.03;11.90;;;1.70;99.90;;;;;;4971207;28;20549;-53
2023/01/23 02:20:44;;;;;;;16.37;12.87;;;1.70;99.90;;;;;;4964270;28;21058;-52
2023/01/23 02:23:20;;;;;;;16.83;13.60;;;1.70;99.90;;;;;;4969077;28;20855;-54
2023/01/23 02:25:58;;;;;;;16.07;12.80;;;1.70;99.90;;;;;;4965305;28;20964;-53
2023/01/23 02:28:37;;;;;;;16.70;13.60;;;1.70;99.90;;;;;;4965014;28;20560;-53
2023/01/23 02:31:04;;;;;;;16.20;12.80;;;1.70;99.90;;;;;;4966808;28;20838;-53
2023/01/23 02:33:49;;;;;;;19.43;13.47;;;1.70;99.90;;;;;;4962543;28;20935;-53
2023/01/23 02:36:18;;;;;;;16.13;12.60;;;1.70;99.90;;;;;;4972249;28;20867;-53
2023/01/23 02:39:02;;;;;;;17.93;12.83;;;1.70;99.90;;;;;;4964691;28;20496;-52
2023/01/23 02:41:32;;;;;;;18.60;13.67;;;1.70;99.90;;;;;;4967660;28;20582;-52
2023/01/23 02:44:02;;;;;;;17.10;12.80;;;1.70;99.90;;;;;;4967961;28;20548;-54
2023/01/23 02:46:28;;;;;;;15.47;12.30;;;1.70;99.90;;;;;;4966156;28;20559;-52
2023/01/23 02:48:55;;;;;;;21.07;15.17;;;1.70;99.90;;;;;;4967421;28;20466;-51
2023/01/23 02:51:23;;;;;;;17.90;13.43;;;1.70;99.90;;;;;;4972145;28;20866;-53
2023/01/23 02:53:49;;;;;;;17.30;13.47;;;1.70;99.90;;;;;;4970775;28;20595;-53
2023/01/23 02:56:16;;;;;;;19.67;15.37;;;1.70;99.90;;;;;;4968441;28;20560;-52
2023/01/23 03:01:28;;;;;;;17.50;13.40;;;1.70;99.90;;;;;;4969481;28;20453;-53
2023/01/23 03:04:03;;;;;;;17.40;14.23;;;1.70;99.90;;;;;;4962776;28;20641;-53
2023/01/23 03:06:34;;;;;;;16.80;14.00;;;1.70;99.90;;;;;;4968905;28;20469;-53
2023/01/23 03:09:02;;;;;;;20.37;14.40;;;1.70;99.90;;;;;;4965682;28;20471;-53
2023/01/23 03:11:28;;;;;;;18.47;13.03;;;1.70;99.90;;;;;;4964384;28;20560;-53
2023/01/23 03:13:56;;;;;;;20.53;14.10;;;1.70;99.90;;;;;;4971293;28;20575;-54
2023/01/23 03:16:23;;;;;;;18.13;14.20;;;1.70;99.90;;;;;;4966640;28;20559;-54
2023/01/23 03:18:49;;;;;;;19.10;13.80;;;1.70;99.90;;;;;;4968879;28;20563;-54
2023/01/23 03:21:16;;;;;;;21.37;15.60;;;1.80;99.90;;;;;;4969059;28;20468;-51
2023/01/23 03:23:45;;;;;;;17.20;14.03;;;1.70;99.90;;;;;;4967668;28;20568;-53
2023/01/23 03:26:12;;;;;;;17.10;13.63;;;1.80;99.90;;;;;;4967449;28;20484;-52
2023/01/23 03:31:24;;;;;;;19.00;13.80;;;1.80;99.90;;;;;;4966924;28;20531;-53
2023/01/23 03:33:52;;;;;;;17.43;14.47;;;1.80;99.90;;;;;;4966902;28;20584;-53
2023/01/23 03:36:18;;;;;;;18.37;13.93;;;1.80;99.90;;;;;;4967139;28;20519;-54
2023/01/23 03:41:25;;;;;;;15.83;12.20;;;1.80;99.90;;;;;;4964608;28;21042;-55
2023/01/23 03:43:52;;;;;;;18.23;14.13;;;1.80;99.90;;;;;;4963454;28;20776;-53
2023/01/23 03:46:19;;;;;;;20.83;15.07;;;1.80;99.90;;;;;;4967417;28;20580;-53
2023/01/23 03:48:46;;;;;;;18.40;14.20;;;1.80;99.90;;;;;;4971810;28;20544;-52
2023/01/23 03:51:13;;;;;;;18.07;14.03;;;1.80;99.90;;;;;;4970868;28;20555;-52
2023/01/23 03:53:39;;;;;;;18.50;14.80;;;1.80;99.90;;;;;;4972812;28;20579;-53
2023/01/23 03:56:07;;;;;;;18.33;14.50;;;1.70;99.90;;;;;;4965817;28;20547;-53
2023/01/23 03:58:33;;;;;;;17.57;14.20;;;1.80;99.90;;;;;;4971522;28;20884;-53
2023/01/23 04:01:02;;;;;;;16.33;13.20;;;1.80;99.90;;;;;;4968635;28;20473;-54
2023/01/23 04:03:29;;;;;;;21.10;15.33;;;1.80;99.90;;;;;;4969176;28;20484;-53
2023/01/23 04:05:57;;;;;;;18.73;14.40;;;1.80;99.90;;;;;;4967461;28;20580;-53
2023/01/23 04:08:24;;;;;;;18.57;14.70;;;1.70;99.90;;;;;;4969256;28;20604;-53
2023/01/23 04:10:51;;;;;;;19.00;13.70;;;1.70;99.90;;;;;;4970909;28;20548;-53
2023/01/23 04:13:17;;;;;;;22.07;14.20;;;1.70;99.90;;;;;;4974408;28;21061;-53
2023/01/23 04:15:44;;;;;;;18.57;14.37;;;1.70;99.90;;;;;;4970661;28;20536;-53
2023/01/23 04:18:10;;;;;;;20.50;13.93;;;1.70;99.90;;;;;;4972828;28;20528;-53
2023/01/23 04:20:37;;;;;;;19.73;14.33;;;1.70;99.90;;;;;;4986594;28;21029;-54
2023/01/23 04:23:05;;;;;;;18.87;14.20;;;1.70;99.90;;;;;;4988895;28;20518;-53
2023/01/23 04:25:31;;;;;;;22.80;14.60;;;1.70;99.90;;;;;;4982131;28;20497;-54
2023/01/23 04:27:58;;;;;;;20.33;14.90;;;1.70;99.90;;;;;;4977848;28;20504;-53
2023/01/23 04:30:24;;;;;;;16.20;13.37;;;1.70;99.90;;;;;;4970576;28;20547;-53
2023/01/23 04:32:51;;;;;;;17.17;13.10;;;1.70;99.90;;;;;;4971477;28;20642;-53
2023/01/23 04:35:17;;;;;;;18.77;13.70;;;1.70;99.90;;;;;;4971921;28;20566;-53
2023/01/23 04:37:44;;;;;;;19.03;13.57;;;1.70;99.90;;;;;;4966741;28;20959;-54
2023/01/23 04:40:12;;;;;;;20.60;15.17;;;1.70;99.90;;;;;;4973461;28;20476;-53
2023/01/23 04:42:39;;;;;;;20.20;14.23;;;1.60;99.90;;;;;;4966137;28;20481;-54
2023/01/23 04:45:07;;;;;;;19.57;14.67;;;1.60;99.90;;;;;;4963359;28;20563;-51
2023/01/23 04:47:34;;;;;;;18.53;14.80;;;1.60;99.90;;;;;;4966141;28;21107;-54
2023/01/23 04:50:00;;;;;;;16.93;13.70;;;1.60;99.90;;;;;;4969525;28;20888;-51
2023/01/23 04:52:27;;;;;;;19.60;14.73;;;1.60;99.90;;;;;;4971151;28;20460;-52
2023/01/23 04:54:54;;;;;;;16.10;13.87;;;1.60;99.90;;;;;;4971829;28;20507;-51
2023/01/23 04:57:22;;;;;;;18.47;14.73;;;1.60;99.90;;;;;;4966352;28;20556;-53
2023/01/23 04:59:49;;;;;;;18.13;14.77;;;1.60;99.90;;;;;;4968620;28;20553;-53
2023/01/23 05:02:15;;;;;;;20.30;14.63;;;1.60;99.90;;;;;;4969377;28;20560;-54
2023/01/23 05:04:42;;;;;;;18.67;13.70;;;1.60;99.90;;;;;;4971336;28;20591;-53
2023/01/23 05:07:10;;;;;;;16.90;13.40;;;1.60;99.90;;;;;;4969022;28;20560;-53
2023/01/23 05:09:37;;;;;;;17.90;13.80;;;1.60;99.90;;;;;;4971358;28;20468;-53
2023/01/23 05:12:04;;;;;;;20.27;14.80;;;1.60;99.90;;;;;;4971047;28;20892;-54
2023/01/23 05:14:32;;;;;;;18.20;14.63;;;1.60;99.90;;;;;;4969216;28;20572;-54
2023/01/23 05:16:59;;;;;;;19.30;15.03;;;1.60;99.90;;;;;;4968890;28;20978;-53
2023/01/23 05:19:25;;;;;;;18.77;14.20;;;1.60;99.90;;;;;;4968797;28;20580;-53
2023/01/23 05:21:52;;;;;;;17.47;13.63;;;1.60;99.90;;;;;;4968524;28;20559;-53
2023/01/23 05:24:19;;;;;;;20.97;14.90;;;1.60;99.90;;;;;;4972553;28;20482;-53
2023/01/23 05:26:45;;;;;;;19.30;13.93;;;1.60;99.90;;;;;;4961532;28;21093;-53
2023/01/23 05:29:12;;;;;;;19.43;14.43;;;1.50;99.90;;;;;;4967787;28;20500;-53
2023/01/23 05:31:40;;;;;;;18.13;14.30;;;1.50;99.90;;;;;;4968230;28;20504;-53
2023/01/23 05:34:06;;;;;;;22.97;16.30;;;1.50;99.90;;;;;;4971397;28;20579;-53
2023/01/23 05:36:33;;;;;;;19.07;12.37;;;1.50;99.90;;;;;;4970885;28;20544;-53
2023/01/23 05:38:59;;;;;;;16.90;14.40;;;1.50;99.90;;;;;;4970970;28;21216;-53
2023/01/23 05:41:26;;;;;;;19.47;14.70;;;1.50;99.90;;;;;;4970175;28;20555;-54
2023/01/23 05:43:52;;;;;;;19.67;14.90;;;1.50;99.90;;;;;;4971689;28;20555;-52
2023/01/23 05:46:19;;;;;;;20.90;14.83;;;1.60;99.90;;;;;;4964605;28;20575;-52
2023/01/23 05:48:50;;;;;;;17.37;14.47;;;1.50;99.90;;;;;;4963909;28;20998;-52
2023/01/23 05:51:16;;;;;;;20.37;15.60;;;1.50;99.90;;;;;;4969092;28;20968;-53
2023/01/23 05:53:43;;;;;;;20.53;14.27;;;1.50;99.90;;;;;;4964325;28;20572;-54
2023/01/23 05:56:10;;;;;;;19.53;15.07;;;1.60;99.90;;;;;;4965179;28;20508;-52
2023/01/23 05:58:37;;;;;;;26.00;16.30;;;1.50;99.90;;;;;;4970692;28;20543;-53
2023/01/23 06:01:04;;;;;;;18.73;14.60;;;1.50;99.90;;;;;;4965505;28;20572;-53
2023/01/23 06:03:31;;;;;;;18.60;15.23;;;1.50;99.90;;;;;;4966790;28;20572;-54
2023/01/23 06:06:00;;;;;;;19.70;14.90;;;1.50;99.90;;;;;;4972353;28;20575;-53
2023/01/23 06:08:27;;;;;;;17.43;14.10;;;1.50;99.90;;;;;;4970045;28;21030;-53
2023/01/23 06:10:57;;;;;;;19.33;13.63;;;1.50;99.90;;;;;;4969872;28;20565;-53
2023/01/23 06:13:23;;;;;;;17.20;13.23;;;1.50;99.90;;;;;;4966694;28;20930;-53
2023/01/23 06:15:50;;;;;;;17.23;13.53;;;1.50;99.90;;;;;;4968676;28;20547;-53
2023/01/23 06:18:17;;;;;;;19.67;14.73;;;1.40;99.90;;;;;;4967614;28;20552;-53
2023/01/23 06:20:43;;;;;;;20.90;13.97;;;1.40;99.90;;;;;;4971948;28;21026;-53
2023/01/23 06:23:11;;;;;;;18.27;13.67;;;1.40;99.90;;;;;;4964162;28;20539;-54
2023/01/23 06:25:38;;;;;;;18.67;14.03;;;1.40;99.90;;;;;;4965536;28;20591;-53
2023/01/23 06:28:05;;;;;;;16.73;13.57;;;1.40;99.90;;;;;;4967070;28;20554;-53
2023/01/23 06:30:32;;;;;;;17.53;14.23;;;1.40;99.90;;;;;;4964154;28;20561;-53
2023/01/23 06:32:58;;;;;;;17.90;14.23;;;1.40;99.90;;;;;;4966405;28;20528;-52
2023/01/23 06:35:25;;;;;;;16.03;13.27;;;1.40;99.90;;;;;;4967684;28;20580;-53
2023/01/23 06:37:52;;;;;;;19.40;13.80;;;1.40;99.90;;;;;;4971920;28;20906;-52
2023/01/23 06:40:20;;;;;;;17.10;12.90;;;1.50;99.90;;;;;;4970239;28;20560;-52
2023/01/23 06:42:47;;;;;;;18.93;14.93;;;1.50;99.90;;;;;;4965582;28;20544;-53
2023/01/23 06:45:13;;;;;;;18.77;13.90;;;1.50;99.90;;;;;;4969817;28;20585;-52
2023/01/23 06:47:40;;;;;;;13.30;11.63;;;1.50;99.90;;;;;;4970292;28;20555;-56
2023/01/23 06:50:07;;;;;;;19.47;15.00;;;1.60;99.90;;;;;;4960916;28;21034;-52
2023/01/23 06:52:34;;;;;;;19.80;14.43;;;1.60;99.90;;;;;;4966602;28;20504;-52
2023/01/23 06:55:01;;;;;;;18.83;13.43;;;1.60;99.90;;;;;;4962883;28;20576;-52
2023/01/23 06:57:28;;;;;;;18.30;14.03;;;1.60;99.90;;;;;;4970197;28;20556;-53
2023/01/23 06:59:55;;;;;;;21.23;13.53;;;1.60;99.90;;;;;;4968090;28;20551;-53
2023/01/23 07:02:22;;;;;;;17.70;13.87;;;1.60;99.90;;;;;;4968582;28;20555;-54
2023/01/23 07:04:48;;;;;;;17.17;14.60;;;1.60;99.90;;;;;;4967867;28;21008;-53
2023/01/23 07:07:15;;;;;;;19.47;14.20;;;1.70;99.90;;;;;;4970301;28;20926;-53
2023/01/23 07:09:42;;;;;;;20.20;14.70;;;1.60;99.90;;;;;;4963688;28;20552;-52
2023/01/23 07:12:09;;;;;;;20.10;14.60;;;1.60;99.90;;;;;;4969616;28;20540;-53
2023/01/23 07:14:36;;;;;;;16.60;13.30;;;1.60;99.90;;;;;;4973252;28;20570;-54
2023/01/23 07:17:03;;;;;;;19.20;14.73;;;1.70;99.90;;;;;;4969335;28;20559;-53
2023/01/23 07:19:29;;;;;;;18.23;14.00;;;1.70;99.90;;;;;;4970838;28;20568;-54
2023/01/23 07:21:56;;;;;;;18.17;14.47;;;1.70;99.90;;;;;;4967394;28;20560;-52
2023/01/23 07:24:23;;;;;;;19.17;14.10;;;1.70;99.90;;;;;;4962862;28;20614;-52
2023/01/23 07:26:49;;;;;;;17.43;14.97;;;1.70;99.90;;;;;;4967398;28;20496;-53
2023/01/23 07:29:17;;;;;;;17.87;14.30;;;1.80;99.90;;;;;;4972624;28;20579;-53
2023/01/23 07:31:45;;;;;;;18.00;13.97;;;1.70;99.90;;;;;;4966871;28;20557;-53
2023/01/23 07:34:11;;;;;;;15.67;14.00;;;1.70;99.90;;;;;;5002531;23;20483;-55
2023/01/23 07:36:38;;;;;;;17.43;14.00;;;1.70;99.90;;;;;;4992935;28;20465;-55
2023/01/23 07:39:05;;;;;;;18.60;14.40;;;1.70;99.90;;;;;;4990232;28;20574;-54
2023/01/23 07:41:31;;;;;;;17.70;14.73;;;1.80;99.90;;;;;;4995866;28;20444;-54
2023/01/23 07:43:58;;;;;;;15.67;13.20;;;1.80;99.90;;;;;;4976098;28;20574;-54
2023/01/23 07:46:25;;;;;;;17.50;14.23;;;1.80;99.90;;;;;;4971084;28;20578;-54
2023/01/23 07:48:55;;;;;;;17.00;14.07;;;1.80;99.90;;;;;;4962048;28;20468;-55
2023/01/23 07:51:21;;;;;;;19.70;14.83;;;1.80;99.90;;;;;;4973516;28;20476;-54
2023/01/23 07:53:48;;;;;;;17.77;14.97;;;1.80;99.90;;;;;;4968941;28;21223;-58
2023/01/23 07:56:14;;;;;;;18.43;14.37;;;1.80;99.90;;;;;;4968870;28;20552;-54
2023/01/23 07:58:41;;;;;;;19.50;15.70;;;1.70;99.90;;;;;;4967264;28;20476;-55
2023/01/23 08:01:08;;;;;;;17.83;14.33;;;1.70;99.90;;;;;;4947077;28;20464;-54
2023/01/23 08:03:35;;;;;;;21.80;15.20;;;1.80;99.90;;;;;;4959252;28;20574;-57
2023/01/23 08:06:03;;;;;;;17.80;14.03;;;1.80;99.90;;;;;;4971959;28;21033;-56
2023/01/23 08:08:30;;;;;;;20.63;15.27;;;1.80;99.90;;;;;;4967283;28;20529;-55
2023/01/23 08:10:57;;;;;;;16.43;13.93;;;1.70;99.90;;;;;;4965332;28;20520;-54
2023/01/23 08:13:24;;;;;;;16.90;13.40;;;1.80;99.90;;;;;;4963532;28;20485;-55
2023/01/23 08:15:52;;;;;;;18.33;13.83;;;1.80;99.90;;;;;;4964060;28;20551;-54
2023/01/23 08:18:18;;;;;;;21.03;15.00;;;1.90;99.90;;;;;;4958623;28;21043;-56
2023/01/23 08:20:51;;;;;;;21.23;13.97;;;1.80;99.90;;;;;;4966074;28;20629;-56
2023/01/23 08:23:19;;;;;;;17.30;15.00;;;1.90;99.90;;;;;;4969943;28;20484;-55
2023/01/23 08:25:46;;;;;;;16.60;13.27;;;1.80;99.90;;;;;;4967937;28;20567;-55
2023/01/23 08:28:12;;;;;;;17.77;14.67;;;1.90;99.90;;;;;;4970256;28;20560;-54
2023/01/23 08:30:39;;;;;;;21.53;14.73;;;1.90;99.90;;;;;;4972549;28;20503;-54
2023/01/23 08:33:06;;;;;;;18.30;14.90;;;1.90;99.90;;;;;;4964445;28;20560;-54
2023/01/23 08:35:32;;;;;;;17.40;14.20;;;2.00;99.90;;;;;;4967817;28;20902;-56
2023/01/23 08:37:59;;;;;;;15.83;13.30;;;2.00;99.90;;;;;;4969859;28;21055;-57
2023/01/23 08:40:27;;;;;;;19.03;14.70;;;1.90;99.90;;;;;;4967404;28;20464;-54
2023/01/23 08:42:53;;;;;;;16.83;13.87;;;2.00;99.90;;;;;;4964538;28;20583;-57
2023/01/23 08:45:20;;;;;;;17.57;13.10;;;2.10;99.90;;;;;;4967403;28;20481;-55
2023/01/23 08:47:47;;;;;;;17.30;14.53;;;2.00;99.90;;;;;;4953881;28;20488;-54
2023/01/23 08:50:14;;;;;;;18.33;14.57;;;2.00;99.90;;;;;;4964335;28;20488;-57
2023/01/23 08:52:41;;;;;;;17.70;14.00;;;2.00;99.90;;;;;;4970414;28;20552;-55
2023/01/23 08:55:09;;;;;;;20.60;15.97;;;2.00;99.90;;;;;;4967346;28;20584;-54
2023/01/23 08:57:37;;;;;;;17.70;14.50;;;2.00;99.90;;;;;;4964974;28;20585;-56
2023/01/23 09:00:05;;;;;;;19.17;14.30;;;2.00;99.90;;;;;;4961761;28;20547;-55
2023/01/23 09:02:31;;;;;;;20.57;14.90;;;2.00;99.90;;;;;;4958868;28;20472;-55
2023/01/23 09:04:58;;;;;;;24.80;18.60;;;2.00;99.90;;;;;;4955016;28;20508;-55
2023/01/23 09:07:24;;;;;;;19.70;15.70;;;1.90;99.90;;;;;;4963786;28;20576;-56
2023/01/23 09:09:51;;;;;;;17.80;15.40;;;2.00;99.90;;;;;;4965667;28;20495;-55
2023/01/23 09:12:18;;;;;;;22.70;16.13;;;1.90;99.90;;;;;;4971934;28;20465;-55
2023/01/23 09:14:46;;;;;;;17.67;14.43;;;2.00;99.90;;;;;;4961628;28;20575;-54
2023/01/23 09:17:12;;;;;;;19.23;14.23;;;2.00;99.90;;;;;;4961491;28;20497;-56
2023/01/23 09:19:39;;;;;;;17.07;14.20;;;2.10;99.90;;;;;;4960781;28;20567;-56
2023/01/23 09:22:05;;;;;;;17.43;13.77;;;2.00;99.90;;;;;;4960429;28;20891;-55
2023/01/23 09:24:32;;;;;;;19.00;15.17;;;2.00;99.90;;;;;;4962423;28;20484;-56
2023/01/23 09:26:58;;;;;;;18.47;13.97;;;2.10;99.90;;;;;;4967232;28;20584;-56
2023/01/23 09:29:25;;;;;;;19.37;15.20;;;2.10;99.90;;;;;;4962707;28;20581;-55
2023/01/23 09:31:53;;;;;;;19.10;14.50;;;2.10;99.90;;;;;;4958379;28;20469;-54
2023/01/23 09:34:20;;;;;;;16.40;13.37;;;2.10;99.90;;;;;;4957588;28;20521;-55
2023/01/23 09:36:46;;;;;;;18.77;13.73;;;2.10;99.90;;;;;;4966612;28;20572;-55
2023/01/23 09:39:13;;;;;;;18.90;15.53;;;2.20;99.90;;;;;;4957588;28;20567;-54
2023/01/23 09:41:40;;;;;;;23.60;13.80;;;2.20;99.90;;;;;;4964735;28;20551;-55
2023/01/23 09:44:12;;;;;;;16.87;13.47;;;2.20;99.90;;;;;;4956390;28;20509;-55
2023/01/23 09:46:43;;;;;;;16.60;13.13;;;2.20;99.90;;;;;;4959579;28;20530;-54
2023/01/23 09:49:17;;;;;;;19.03;14.40;;;2.20;99.90;;;;;;4961731;28;21119;-55
2023/01/23 09:51:51;;;;;;;17.07;14.20;;;2.20;99.90;;;;;;4964901;28;20500;-56
2023/01/23 09:54:29;;;;;;;23.07;14.97;;;2.20;99.90;;;;;;4958921;28;20489;-55
2023/01/23 09:56:57;;;;;;;17.13;13.70;;;2.10;99.90;;;;;;4957114;28;20596;-54
2023/01/23 09:59:33;;;;;;;18.00;14.13;;;2.20;99.90;;;;;;4958304;28;20555;-56
2023/01/23 10:02:00;;;;;;;18.83;15.40;;;2.10;99.90;;;;;;4956137;28;20559;-56
2023/01/23 10:04:28;;;;;;;30.70;22.20;;;2.20;99.90;;;;;;4953277;28;20581;-55
2023/01/23 10:07:11;;;;;;;25.57;18.40;;;2.10;99.90;;;;;;4954489;28;20867;-55
2023/01/23 10:09:53;;;;;;;41.30;27.97;;;2.10;99.90;;;;;;4966279;28;20505;-55
2023/01/23 10:12:35;;;;;;;37.40;25.60;;;2.10;99.90;;;;;;4967593;28;20553;-57
2023/01/23 10:15:16;;;;;;;24.03;19.73;;;2.20;99.90;;;;;;4961813;28;20567;-55
2023/01/23 10:17:52;;;;;;;20.30;16.07;;;2.20;99.90;;;;;;4967521;28;20461;-55
2023/01/23 10:20:46;;;;;;;18.23;15.47;;;2.20;99.90;;;;;;4966664;28;20542;-54
2023/01/23 10:23:24;;;;;;;19.30;16.20;;;2.10;99.90;;;;;;4961606;28;20504;-54
2023/01/23 10:25:52;;;;;;;21.63;16.53;;;2.20;99.90;;;;;;4967234;28;20461;-52
2023/01/23 10:28:29;;;;;;;15.70;13.53;;;2.20;99.90;;;;;;4969504;28;20532;-53
2023/01/23 10:31:00;;;;;;;21.07;15.00;;;2.20;99.90;;;;;;4964646;28;20472;-51
2023/01/23 10:33:36;;;;;;;31.60;15.90;;;2.20;99.90;;;;;;4965587;28;20579;-53
2023/01/23 10:36:11;;;;;;;18.83;15.03;;;2.30;99.90;;;;;;4961647;28;20502;-51
2023/01/23 10:38:45;;;;;;;18.93;14.70;;;2.20;99.90;;;;;;4967841;28;20914;-52
2023/01/23 10:41:14;;;;;;;19.97;13.70;;;2.20;99.90;;;;;;4960323;28;20491;-51
2023/01/23 10:43:41;;;;;;;18.43;14.77;;;2.10;20.40;;;;;;4968214;28;20480;-53
2023/01/23 10:46:13;;;;;;;23.03;14.30;;;2.20;99.90;;;;;;4967569;28;20526;-52
2023/01/23 10:48:43;;;;;;;19.60;15.90;;;2.20;99.90;;;;;;4956006;28;20889;-52
2023/01/23 10:51:30;;;;;;;25.00;19.23;;;2.20;99.90;;;;;;4954873;28;20569;-52
2023/01/23 10:54:10;;;;;;;26.13;19.47;;;2.30;99.90;;;;;;4959107;28;20962;-51
2023/01/23 10:56:46;;;;;;;24.00;16.90;;;2.30;99.90;;;;;;4963737;28;20527;-51
2023/01/23 10:59:20;;;;;;;26.83;17.60;;;2.30;90.60;;;;;;4962821;28;20846;-51
2023/01/23 11:01:56;;;;;;;19.40;15.90;;;2.20;20.60;;;;;;4969955;28;20563;-53
2023/01/23 11:04:26;;;;;;;20.17;14.97;;;2.20;86.00;;;;;;4965728;28;20587;-52
2023/01/23 11:07:04;;;;;;;21.23;14.97;;;2.30;99.90;;;;;;4968604;28;20543;-51
2023/01/23 11:09:32;;;;;;;17.43;13.67;;;2.30;99.90;;;;;;4970046;28;20492;-52
2023/01/23 11:12:03;;;;;;;20.13;15.40;;;2.40;99.90;;;;;;4969510;28;20551;-52
2023/01/23 11:14:30;;;;;;;18.83;15.83;;;2.30;99.90;;;;;;4969585;28;20546;-51
2023/01/23 11:17:02;;;;;;;18.27;14.57;;;2.30;99.90;;;;;;4974087;28;20442;-52
2023/01/23 11:19:32;;;;;;;17.13;13.87;;;2.40;99.90;;;;;;4973535;28;20457;-53
2023/01/23 11:22:02;;;;;;;19.70;15.23;;;2.40;99.90;;;;;;4966262;28;20481;-51
2023/01/23 11:24:33;;;;;;;20.60;13.80;;;2.40;99.90;;;;;;4966600;28;20539;-52
2023/01/23 11:27:01;;;;;;;18.83;14.10;;;2.40;99.90;;;;;;4971904;28;20484;-51
2023/01/23 11:29:30;;;;;;;15.77;14.03;;;2.40;99.90;;;;;;4979384;28;21019;-53
2023/01/23 11:32:00;;;;;;;18.30;14.83;;;2.40;99.90;;;;;;4974771;28;20646;-52
2023/01/23 11:34:31;;;;;;;18.77;14.77;;;2.40;99.90;;;;;;4970972;28;20930;-55
2023/01/23 11:37:07;;;;;;;23.10;17.43;;;2.40;99.90;;;;;;4971119;28;21054;-52
2023/01/23 11:39:49;;;;;;;23.07;16.47;;;2.40;99.90;;;;;;4968679;28;20587;-52
2023/01/23 11:42:18;;;;;;;23.83;15.43;;;2.40;99.90;;;;;;4972455;28;20559;-52
2023/01/23 11:44:45;;;;;;;22.93;17.90;;;2.40;99.90;;;;;;4965012;28;20492;-52
2023/01/23 11:47:41;;;;;;;21.40;16.17;;;2.40;99.90;;;;;;4969337;28;21033;-52
2023/01/23 11:50:23;;;;;;;20.40;14.80;;;2.40;86.40;;;;;;4967934;28;21035;-53
2023/01/23 11:53:00;;;;;;;21.37;14.37;;;2.40;95.40;;;;;;4967748;28;20551;-52
2023/01/23 11:55:39;;;;;;;18.63;15.43;;;2.40;99.90;;;;;;4960093;28;20469;-52
2023/01/23 11:58:16;;;;;;;19.27;14.30;;;2.40;99.90;;;;;;4961634;28;20460;-52
2023/01/23 12:00:46;;;;;;;17.70;14.07;;;2.40;99.90;;;;;;4960870;28;20543;-51
2023/01/23 12:03:34;;;;;;;18.63;14.63;;;2.50;99.90;;;;;;4967075;28;20601;-53
2023/01/23 12:06:35;;;;;;;21.13;14.77;;;2.40;99.90;;;;;;4965019;28;20520;-53
2023/01/23 12:09:11;;;;;;;19.97;15.43;;;2.50;87.90;;;;;;4942312;28;20563;-52
2023/01/23 12:11:50;;;;;;;16.90;13.90;;;2.50;99.90;;;;;;4964816;28;20467;-53
2023/01/23 12:14:23;;;;;;;21.67;16.13;;;2.50;95.30;;;;;;4961123;28;20618;-53
2023/01/23 12:17:13;;;;;;;20.27;14.50;;;2.50;20.20;;;;;;4958973;28;20572;-52
2023/01/23 12:20:17;;;;;;;17.77;14.37;;;2.50;21.00;;;;;;4961307;28;20475;-51
2023/01/23 12:22:56;;;;;;;15.83;13.10;;;2.50;21.80;;;;;;4966754;28;21021;-52
2023/01/23 12:25:33;;;;;;;17.60;14.00;;;2.50;23.90;;;;;;4965249;28;20568;-53
2023/01/23 12:28:10;;;;;;;18.13;13.17;;;2.50;21.10;;;;;;4960030;28;20523;-52
2023/01/23 12:30:56;;;;;;;17.47;14.10;;;2.50;20.20;;;;;;4968199;28;20544;-52
2023/01/23 12:33:46;;;;;;;17.90;12.57;;;2.50;24.40;;;;;;4968323;28;20523;-54
2023/01/23 12:36:38;;;;;;;17.83;13.77;;;2.50;22.70;;;;;;4967748;28;20520;-52
2023/01/23 12:39:16;;;;;;;17.33;11.50;;;2.50;24.80;;;;;;4966523;28;21091;-52
2023/01/23 12:41:48;;;;;;;16.40;13.13;;;2.50;23.60;;;;;;4969966;28;20455;-53
2023/01/23 12:44:20;;;;;;;17.03;13.60;;;2.50;24.90;;;;;;4969768;28;20567;-52
2023/01/23 12:46:54;;;;;;;17.30;12.47;;;2.50;21.10;;;;;;4967613;28;20543;-53
2023/01/23 12:49:26;;;;;;;12.77;11.07;;;2.50;22.20;;;;;;4969182;28;20472;-52
2023/01/23 12:51:59;;;;;;;15.07;11.80;;;2.50;27.60;;;;;;4967872;28;20513;-52
2023/01/23 12:54:34;;;;;;;15.83;12.30;;;2.50;32.70;;;;;;4967672;28;20521;-53
2023/01/23 12:57:04;;;;;;;16.80;12.67;;;2.50;31.30;;;;;;4966756;28;20551;-53